Ellijay, North Carolina
Current Conditions -  °F | °C
As of 2:35 AM on Sunday 23 Nov 2014 (Local Time) from KRHP Reporting Station
Overcast Overcast  
Wind Chill: 52°   Ceiling: 3000
Heat Index: 52°   Visibility: 10mi
Dew Point: 41°   Wind: 9mph
Humidity: 67%   Direction: 320°NW
Pressure: 30.18"   Gusts: NA
Location:  35.1737°N, 83.4215°W
Report Text: KRHP 230735Z AUTO 32008KT 10SM OVC030 11/05 A3018 RMK AO2 T01090049
Loading
Personal Weather Stations






























Interactive Weather Map New forecast layout! Learn more

10-Day Weather Forecast

Advertisements
Track Severe Weather on mobile